Time;durP1;ratioP1;P1;durP2;ratioP2;P2;SDS_P1;SDS_P2;PMS_P1;PMS_P2;Temp;Humidity;BMP_temperature;BMP_pressure;BME280_temperature;BME280_humidity;BME280_pressure;Samples;Min_cycle;Max_cycle;Signal;HPM_P1;HPM_P2
2023/07/26 00:02:09;;;;;;;2.65;1.45;;;;;;;;;;5011302;28;20230;-73
2023/07/26 00:04:34;;;;;;;2.63;1.42;;;;;;;;;;4994476;28;20180;-72
2023/07/26 00:06:59;;;;;;;4.03;1.30;;;;;;;;;;5002636;28;20191;-72
2023/07/26 00:09:25;;;;;;;4.32;1.77;;;;;;;;;;4997253;28;20195;-73
2023/07/26 00:11:50;;;;;;;4.47;1.90;;;;;;;;;;4974147;28;20304;-72
2023/07/26 00:14:16;;;;;;;4.45;2.10;;;;;;;;;;4996219;28;20218;-73
2023/07/26 00:16:41;;;;;;;2.78;1.80;;;;;;;;;;4991834;28;20238;-73
2023/07/26 00:19:06;;;;;;;4.30;1.88;;;;;;;;;;4991502;28;20192;-73
2023/07/26 00:21:32;;;;;;;4.93;2.10;;;;;;;;;;4991657;28;20234;-73
2023/07/26 00:23:58;;;;;;;4.65;2.20;;;;;;;;;;5010321;28;20215;-71
2023/07/26 00:26:25;;;;;;;3.30;1.88;;;;;;;;;;5012972;28;20187;-72
2023/07/26 00:28:51;;;;;;;2.72;1.73;;;;;;;;;;5013240;28;20270;-71
2023/07/26 00:31:16;;;;;;;4.70;2.17;;;;;;;;;;5013219;28;20198;-73
2023/07/26 00:33:41;;;;;;;4.13;2.25;;;;;;;;;;5013442;28;20187;-73
2023/07/26 00:36:08;;;;;;;4.60;2.22;;;;;;;;;;5014404;28;20242;-73
2023/07/26 00:38:34;;;;;;;4.00;2.10;;;;;;;;;;4978712;28;20202;-73
2023/07/26 00:40:59;;;;;;;3.58;2.30;;;;;;;;;;4995115;28;20263;-71
2023/07/26 00:43:24;;;;;;;5.35;1.90;;;;;;;;;;5003924;28;20199;-71
2023/07/26 00:45:52;;;;;;;5.78;2.00;;;;;;;;;;4976732;28;20188;-71
2023/07/26 00:48:17;;;;;;;4.85;2.85;;;;;;;;;;5002334;28;20192;-71
2023/07/26 00:50:45;;;;;;;4.47;2.20;;;;;;;;;;5014463;28;20637;-72
2023/07/26 00:53:11;;;;;;;3.38;1.90;;;;;;;;;;5018594;28;20263;-73
2023/07/26 00:55:37;;;;;;;4.82;2.10;;;;;;;;;;5005925;28;20270;-73
2023/07/26 00:58:03;;;;;;;2.85;2.03;;;;;;;;;;5011009;28;20592;-73
2023/07/26 01:00:28;;;;;;;6.32;2.38;;;;;;;;;;5011453;28;20197;-72
2023/07/26 01:02:54;;;;;;;4.47;2.40;;;;;;;;;;5013787;28;20289;-72
2023/07/26 01:05:19;;;;;;;2.55;2.10;;;;;;;;;;5012270;28;20195;-72
2023/07/26 01:07:54;;;;;;;4.18;2.15;;;;;;;;;;5013603;28;20186;-72
2023/07/26 01:10:33;;;;;;;3.42;2.17;;;;;;;;;;4995652;28;20187;-72
2023/07/26 01:13:17;;;;;;;4.15;2.28;;;;;;;;;;5006477;28;20199;-72
2023/07/26 01:15:45;;;;;;;5.72;2.47;;;;;;;;;;5004743;28;20183;-73
2023/07/26 01:18:14;;;;;;;3.88;2.28;;;;;;;;;;5004077;28;20685;-72
2023/07/26 01:20:40;;;;;;;4.25;2.50;;;;;;;;;;5008977;28;20549;-72
2023/07/26 01:23:06;;;;;;;5.25;2.45;;;;;;;;;;5009336;28;20226;-73
2023/07/26 01:25:32;;;;;;;4.07;2.40;;;;;;;;;;5013786;28;20187;-72
2023/07/26 01:27:57;;;;;;;4.60;2.53;;;;;;;;;;4997641;28;20235;-72
2023/07/26 01:30:29;;;;;;;6.45;2.90;;;;;;;;;;5011204;28;20576;-72
2023/07/26 01:32:57;;;;;;;4.38;2.40;;;;;;;;;;5004075;28;20187;-72
2023/07/26 01:35:23;;;;;;;4.65;2.10;;;;;;;;;;5011044;28;20286;-72
2023/07/26 01:37:50;;;;;;;4.55;2.13;;;;;;;;;;4994170;28;20215;-71
2023/07/26 01:40:17;;;;;;;5.88;2.80;;;;;;;;;;4997447;28;20666;-71
2023/07/26 01:42:42;;;;;;;4.10;2.40;;;;;;;;;;4976604;28;20187;-72
2023/07/26 01:45:09;;;;;;;4.68;2.70;;;;;;;;;;5003153;28;20191;-73
2023/07/26 01:47:35;;;;;;;6.85;2.92;;;;;;;;;;5005825;28;20222;-71
2023/07/26 01:50:00;;;;;;;5.22;2.75;;;;;;;;;;5007329;28;21178;-72
2023/07/26 01:52:26;;;;;;;5.55;2.90;;;;;;;;;;5005132;28;20186;-71
2023/07/26 01:54:51;;;;;;;4.20;2.85;;;;;;;;;;5008286;28;20186;-73
2023/07/26 01:57:17;;;;;;;5.22;2.63;;;;;;;;;;5011664;28;20215;-71
2023/07/26 01:59:42;;;;;;;4.85;3.00;;;;;;;;;;5010896;28;20290;-73
2023/07/26 02:02:08;;;;;;;3.70;2.80;;;;;;;;;;5010943;28;20183;-71
2023/07/26 02:04:33;;;;;;;4.47;2.53;;;;;;;;;;5002905;28;20191;-71
2023/07/26 02:06:58;;;;;;;5.13;2.83;;;;;;;;;;5010336;28;20183;-72
2023/07/26 02:09:24;;;;;;;4.00;2.65;;;;;;;;;;4999492;28;20237;-72
2023/07/26 02:11:49;;;;;;;6.25;2.80;;;;;;;;;;5011369;28;20278;-71
2023/07/26 02:14:16;;;;;;;4.22;3.13;;;;;;;;;;5011458;28;20198;-72
2023/07/26 02:16:41;;;;;;;3.38;2.70;;;;;;;;;;5010351;28;20725;-73
2023/07/26 02:19:07;;;;;;;4.57;3.15;;;;;;;;;;5005252;28;20239;-73
2023/07/26 02:21:33;;;;;;;9.13;3.47;;;;;;;;;;5011318;28;20650;-73
2023/07/26 02:23:58;;;;;;;7.13;3.40;;;;;;;;;;5011275;28;20187;-72
2023/07/26 02:26:24;;;;;;;4.65;3.45;;;;;;;;;;4965926;28;20186;-72
2023/07/26 02:28:49;;;;;;;6.68;3.70;;;;;;;;;;5008372;28;20238;-73
2023/07/26 02:31:14;;;;;;;4.65;3.70;;;;;;;;;;4989791;28;20184;-72
2023/07/26 02:33:40;;;;;;;8.50;3.78;;;;;;;;;;4998934;28;20259;-72
2023/07/26 02:36:05;;;;;;;5.95;4.10;;;;;;;;;;5004789;28;20764;-72
2023/07/26 02:38:30;;;;;;;7.72;3.90;;;;;;;;;;5005279;28;20249;-72
2023/07/26 02:40:56;;;;;;;5.35;4.18;;;;;;;;;;5004942;28;20214;-72
2023/07/26 02:43:21;;;;;;;6.90;3.85;;;;;;;;;;5007062;28;20275;-73
2023/07/26 02:45:47;;;;;;;7.60;3.72;;;;;;;;;;5012362;28;20198;-73
2023/07/26 02:48:12;;;;;;;6.35;3.70;;;;;;;;;;4982121;28;20190;-73
2023/07/26 02:50:38;;;;;;;4.80;3.78;;;;;;;;;;4982229;28;20194;-72
2023/07/26 02:53:03;;;;;;;4.85;3.80;;;;;;;;;;4982227;28;20269;-73
2023/07/26 02:55:28;;;;;;;6.95;3.88;;;;;;;;;;5005227;28;20248;-74
2023/07/26 02:57:54;;;;;;;4.22;3.50;;;;;;;;;;5000314;28;20226;-73
2023/07/26 03:00:19;;;;;;;6.63;4.10;;;;;;;;;;4998321;28;20696;-72
2023/07/26 03:02:45;;;;;;;7.57;4.30;;;;;;;;;;5007878;28;20187;-71
2023/07/26 03:05:10;;;;;;;9.70;4.28;;;;;;;;;;5001445;28;20694;-72
2023/07/26 03:07:35;;;;;;;7.63;3.67;;;;;;;;;;5001516;28;20227;-73
2023/07/26 03:10:01;;;;;;;5.00;3.60;;;;;;;;;;5001708;28;20679;-71
2023/07/26 03:12:26;;;;;;;5.30;4.07;;;;;;;;;;5000359;28;20197;-71
2023/07/26 03:14:52;;;;;;;7.28;4.50;;;;;;;;;;4962564;28;20585;-71
2023/07/26 03:17:17;;;;;;;9.20;4.20;;;;;;;;;;4991419;28;20246;-72
2023/07/26 03:19:42;;;;;;;5.20;3.67;;;;;;;;;;5014073;28;20268;-73
2023/07/26 03:22:08;;;;;;;4.93;3.67;;;;;;;;;;5016211;28;20199;-72
2023/07/26 03:24:33;;;;;;;7.88;4.30;;;;;;;;;;5001489;28;20190;-72
2023/07/26 03:26:59;;;;;;;4.60;3.80;;;;;;;;;;5004893;28;20226;-72
2023/07/26 03:29:24;;;;;;;8.65;4.40;;;;;;;;;;5010427;28;20277;-72
2023/07/26 03:31:50;;;;;;;6.32;4.13;;;;;;;;;;4999723;28;20190;-72
2023/07/26 03:34:15;;;;;;;5.47;3.60;;;;;;;;;;5009214;28;20650;-72
2023/07/26 03:36:40;;;;;;;7.10;3.97;;;;;;;;;;5009977;28;20622;-72
2023/07/26 03:39:06;;;;;;;6.63;3.65;;;;;;;;;;5009032;28;20213;-72
2023/07/26 03:41:32;;;;;;;5.85;3.95;;;;;;;;;;5006922;28;20561;-71
2023/07/26 03:43:57;;;;;;;6.30;4.25;;;;;;;;;;5005441;28;20262;-71
2023/07/26 03:46:22;;;;;;;5.00;3.95;;;;;;;;;;4998555;28;20551;-72
2023/07/26 03:48:48;;;;;;;5.85;4.30;;;;;;;;;;5004185;28;20190;-72
2023/07/26 03:51:13;;;;;;;5.40;4.03;;;;;;;;;;4998039;28;20577;-72
2023/07/26 03:53:38;;;;;;;6.57;4.25;;;;;;;;;;5005116;28;20278;-73
2023/07/26 03:56:04;;;;;;;6.43;4.53;;;;;;;;;;4989316;28;20242;-72
2023/07/26 03:58:29;;;;;;;7.95;4.60;;;;;;;;;;4998532;28;20266;-73
2023/07/26 04:00:55;;;;;;;6.05;4.70;;;;;;;;;;4995683;28;20187;-72
2023/07/26 04:03:20;;;;;;;7.47;4.40;;;;;;;;;;4996741;28;20211;-72
2023/07/26 04:05:45;;;;;;;8.38;4.85;;;;;;;;;;4995319;28;20195;-72
2023/07/26 04:08:11;;;;;;;9.38;5.35;;;;;;;;;;5007050;28;20253;-72
2023/07/26 04:10:37;;;;;;;10.90;4.85;;;;;;;;;;5006868;28;20203;-72
2023/07/26 04:13:02;;;;;;;7.10;5.18;;;;;;;;;;5009281;28;20676;-72
2023/07/26 04:15:29;;;;;;;9.48;4.47;;;;;;;;;;4986774;28;20191;-72
2023/07/26 04:17:55;;;;;;;8.13;5.10;;;;;;;;;;4996547;28;20600;-72
2023/07/26 04:20:20;;;;;;;6.80;4.70;;;;;;;;;;4988489;28;20265;-72
2023/07/26 04:22:45;;;;;;;12.63;5.68;;;;;;;;;;4992949;28;20333;-72
2023/07/26 04:25:11;;;;;;;6.25;5.20;;;;;;;;;;4993403;28;20195;-71
2023/07/26 04:27:36;;;;;;;10.25;5.82;;;;;;;;;;4997787;28;20238;-72
2023/07/26 04:30:03;;;;;;;8.10;5.75;;;;;;;;;;5013127;28;20183;-72
2023/07/26 04:32:28;;;;;;;10.88;5.68;;;;;;;;;;5012035;28;20619;-72
2023/07/26 04:34:53;;;;;;;9.77;5.93;;;;;;;;;;5013522;28;20306;-72
2023/07/26 04:37:19;;;;;;;6.82;5.40;;;;;;;;;;5009580;28;20712;-72
2023/07/26 04:39:47;;;;;;;7.10;5.05;;;;;;;;;;5013739;28;20195;-72
2023/07/26 04:42:13;;;;;;;9.25;5.72;;;;;;;;;;4998793;28;20215;-72
2023/07/26 04:44:38;;;;;;;7.82;5.50;;;;;;;;;;4995451;28;20245;-72
2023/07/26 04:47:04;;;;;;;7.22;6.05;;;;;;;;;;5012867;28;20215;-72
2023/07/26 04:49:29;;;;;;;9.85;6.32;;;;;;;;;;5013501;28;20187;-72
2023/07/26 04:51:55;;;;;;;9.40;6.50;;;;;;;;;;5001278;28;20199;-72
2023/07/26 04:54:20;;;;;;;10.10;6.07;;;;;;;;;;4994249;28;20276;-72
2023/07/26 04:56:45;;;;;;;11.55;5.72;;;;;;;;;;5009799;28;20205;-73
2023/07/26 04:59:11;;;;;;;15.45;6.57;;;;;;;;;;4995448;28;20257;-72
2023/07/26 05:01:36;;;;;;;7.72;5.90;;;;;;;;;;4993252;28;20195;-72
2023/07/26 05:04:02;;;;;;;7.20;6.03;;;;;;;;;;5001715;28;20197;-73
2023/07/26 05:06:27;;;;;;;8.05;6.00;;;;;;;;;;5007677;28;20242;-72
2023/07/26 05:08:52;;;;;;;8.20;6.53;;;;;;;;;;5000556;28;20326;-71
2023/07/26 05:11:22;;;;;;;8.00;5.90;;;;;;;;;;5008535;28;20644;-71
2023/07/26 05:13:50;;;;;;;7.72;5.47;;;;;;;;;;5016175;28;20277;-71
2023/07/26 05:16:16;;;;;;;7.43;5.93;;;;;;;;;;5001503;28;20242;-73
2023/07/26 05:18:41;;;;;;;8.10;6.63;;;;;;;;;;4997106;28;20242;-73
2023/07/26 05:21:07;;;;;;;13.13;6.75;;;;;;;;;;4992256;28;20195;-73
2023/07/26 05:23:33;;;;;;;8.40;6.13;;;;;;;;;;5000913;28;20198;-72
2023/07/26 05:25:58;;;;;;;9.70;6.68;;;;;;;;;;5004837;28;20565;-70
2023/07/26 05:28:23;;;;;;;8.95;6.80;;;;;;;;;;5003360;28;20705;-73
2023/07/26 05:30:49;;;;;;;9.88;6.45;;;;;;;;;;5004775;28;20278;-73
2023/07/26 05:33:15;;;;;;;10.70;6.65;;;;;;;;;;4999643;28;20261;-73
2023/07/26 05:35:40;;;;;;;9.85;5.90;;;;;;;;;;4980172;28;20561;-72
2023/07/26 05:38:06;;;;;;;9.95;6.95;;;;;;;;;;5007972;28;20376;-73
2023/07/26 05:40:31;;;;;;;10.18;6.25;;;;;;;;;;5008177;28;20195;-72
2023/07/26 05:42:56;;;;;;;7.95;6.15;;;;;;;;;;5006235;28;20595;-71
2023/07/26 05:45:22;;;;;;;10.85;6.70;;;;;;;;;;4999790;28;20550;-71
2023/07/26 05:47:47;;;;;;;6.53;5.53;;;;;;;;;;4999199;28;20194;-72
2023/07/26 05:50:13;;;;;;;9.05;6.30;;;;;;;;;;5005838;28;20648;-71
2023/07/26 05:52:39;;;;;;;9.15;6.38;;;;;;;;;;5004128;28;20191;-71
2023/07/26 05:55:05;;;;;;;9.07;6.28;;;;;;;;;;4994138;28;20669;-71
2023/07/26 05:57:30;;;;;;;8.75;6.80;;;;;;;;;;5010060;28;20492;-71
2023/07/26 05:59:56;;;;;;;7.28;6.53;;;;;;;;;;5016052;28;20202;-71
2023/07/26 06:02:21;;;;;;;7.07;5.57;;;;;;;;;;5001754;28;20199;-72
2023/07/26 06:04:47;;;;;;;9.07;6.18;;;;;;;;;;5008761;28;20713;-72
2023/07/26 06:07:13;;;;;;;9.63;6.20;;;;;;;;;;5004736;28;20202;-71
2023/07/26 06:09:38;;;;;;;8.57;6.30;;;;;;;;;;5011509;28;20191;-71
2023/07/26 06:12:04;;;;;;;7.90;6.20;;;;;;;;;;4994860;28;20238;-71
2023/07/26 06:14:30;;;;;;;7.82;6.28;;;;;;;;;;5008114;28;20221;-71
2023/07/26 06:16:56;;;;;;;7.97;6.43;;;;;;;;;;5010825;28;20222;-71
2023/07/26 06:19:22;;;;;;;6.88;6.07;;;;;;;;;;4992184;28;20199;-71
2023/07/26 06:21:48;;;;;;;11.02;6.75;;;;;;;;;;4996422;28;20187;-71
2023/07/26 06:24:13;;;;;;;8.80;6.20;;;;;;;;;;4994856;28;20195;-72
2023/07/26 06:26:38;;;;;;;7.68;5.82;;;;;;;;;;5002210;28;20206;-71
2023/07/26 06:29:04;;;;;;;7.97;6.30;;;;;;;;;;4995585;28;20653;-71
2023/07/26 06:31:30;;;;;;;7.22;5.45;;;;;;;;;;4998911;28;20217;-72
2023/07/26 06:33:55;;;;;;;9.07;6.05;;;;;;;;;;5001616;28;20195;-71
2023/07/26 06:36:20;;;;;;;7.13;5.72;;;;;;;;;;5002686;28;20599;-72
2023/07/26 06:38:46;;;;;;;8.65;5.63;;;;;;;;;;5004857;28;20190;-72
2023/07/26 06:41:11;;;;;;;8.70;5.50;;;;;;;;;;5003774;28;20194;-72
2023/07/26 06:43:37;;;;;;;9.40;5.72;;;;;;;;;;5009643;28;20186;-72
2023/07/26 06:46:03;;;;;;;7.63;5.80;;;;;;;;;;4983143;28;20606;-72
2023/07/26 06:48:28;;;;;;;8.43;5.25;;;;;;;;;;4995939;28;20978;-72
2023/07/26 06:50:54;;;;;;;9.45;5.68;;;;;;;;;;4997048;28;20197;-72
2023/07/26 06:53:19;;;;;;;6.15;5.55;;;;;;;;;;4991959;28;20568;-72
2023/07/26 06:55:45;;;;;;;7.18;5.50;;;;;;;;;;5000758;28;20221;-73
2023/07/26 06:58:10;;;;;;;8.50;4.68;;;;;;;;;;4994137;28;20199;-74
2023/07/26 07:00:36;;;;;;;7.72;4.80;;;;;;;;;;5001886;28;20295;-72
2023/07/26 07:03:03;;;;;;;7.22;5.18;;;;;;;;;;5014070;28;20190;-72
2023/07/26 07:05:29;;;;;;;7.05;4.50;;;;;;;;;;5006721;28;20273;-72
2023/07/26 07:07:55;;;;;;;8.57;4.65;;;;;;;;;;5004760;28;20207;-72
2023/07/26 07:10:22;;;;;;;5.20;3.90;;;;;;;;;;5007396;28;20209;-72
2023/07/26 07:12:48;;;;;;;7.40;4.22;;;;;;;;;;5008800;28;20188;-72
2023/07/26 07:15:14;;;;;;;5.10;3.53;;;;;;;;;;5007283;28;20540;-73
2023/07/26 07:17:39;;;;;;;4.95;3.28;;;;;;;;;;5007036;28;20249;-73
2023/07/26 07:20:07;;;;;;;5.18;3.42;;;;;;;;;;5006159;28;20190;-72
2023/07/26 07:22:33;;;;;;;3.25;2.95;;;;;;;;;;4998716;28;20234;-73
2023/07/26 07:24:59;;;;;;;5.82;3.40;;;;;;;;;;5006213;28;20198;-73
2023/07/26 07:27:24;;;;;;;7.50;4.05;;;;;;;;;;4998103;28;20230;-73
2023/07/26 07:29:50;;;;;;;6.22;3.10;;;;;;;;;;5007643;28;20701;-72
2023/07/26 07:32:16;;;;;;;4.32;2.60;;;;;;;;;;4989420;28;20201;-72
2023/07/26 07:34:41;;;;;;;4.40;2.72;;;;;;;;;;5005318;28;20194;-72
2023/07/26 07:37:07;;;;;;;8.05;3.08;;;;;;;;;;5007613;28;20219;-74
2023/07/26 07:39:33;;;;;;;5.45;3.05;;;;;;;;;;5010623;28;20557;-73
2023/07/26 07:41:59;;;;;;;5.57;3.20;;;;;;;;;;5000640;28;20191;-72
2023/07/26 07:44:27;;;;;;;5.00;2.97;;;;;;;;;;5006224;28;20194;-72
2023/07/26 07:46:53;;;;;;;4.03;2.67;;;;;;;;;;5006271;28;20194;-72
2023/07/26 07:49:18;;;;;;;3.78;2.97;;;;;;;;;;5001718;28;20202;-74
2023/07/26 07:51:44;;;;;;;4.70;3.20;;;;;;;;;;5010553;28;20185;-72
2023/07/26 07:54:09;;;;;;;5.93;3.35;;;;;;;;;;4998176;28;20642;-72
2023/07/26 07:56:35;;;;;;;6.25;3.05;;;;;;;;;;5007690;28;20215;-73
2023/07/26 07:59:00;;;;;;;6.10;4.25;;;;;;;;;;4999735;28;20286;-72
2023/07/26 08:01:26;;;;;;;5.13;4.10;;;;;;;;;;5002532;28;20195;-73
2023/07/26 08:03:51;;;;;;;7.22;4.43;;;;;;;;;;4991044;28;20206;-72
2023/07/26 08:06:17;;;;;;;6.63;4.55;;;;;;;;;;4997057;28;20198;-73
2023/07/26 08:08:42;;;;;;;6.95;4.88;;;;;;;;;;5005137;28;20678;-72
2023/07/26 08:11:08;;;;;;;7.38;4.75;;;;;;;;;;5004020;28;20717;-72
2023/07/26 08:13:34;;;;;;;9.38;4.68;;;;;;;;;;5003674;28;20533;-72
2023/07/26 08:16:00;;;;;;;7.43;4.35;;;;;;;;;;5002117;28;20273;-72
2023/07/26 08:18:25;;;;;;;6.82;5.10;;;;;;;;;;4995401;28;20604;-72
2023/07/26 08:20:51;;;;;;;7.70;4.60;;;;;;;;;;5005486;28;20206;-71
2023/07/26 08:23:16;;;;;;;7.38;4.63;;;;;;;;;;4998578;28;20191;-72
2023/07/26 08:25:42;;;;;;;6.13;4.50;;;;;;;;;;5003561;28;20187;-72
2023/07/26 08:28:07;;;;;;;7.72;4.47;;;;;;;;;;5003708;28;20238;-72
2023/07/26 08:30:33;;;;;;;6.68;4.38;;;;;;;;;;5007689;28;20700;-71
2023/07/26 08:32:58;;;;;;;6.32;4.70;;;;;;;;;;4973079;28;20698;-72
2023/07/26 08:35:24;;;;;;;6.80;4.35;;;;;;;;;;5004824;28;20203;-73
2023/07/26 08:37:49;;;;;;;7.60;4.38;;;;;;;;;;5008991;28;20207;-72
2023/07/26 08:40:15;;;;;;;7.60;5.22;;;;;;;;;;5003526;28;20199;-71
2023/07/26 08:42:41;;;;;;;8.02;5.10;;;;;;;;;;5002089;28;20188;-72
2023/07/26 08:45:06;;;;;;;6.93;5.03;;;;;;;;;;5003003;28;20210;-73
2023/07/26 08:47:34;;;;;;;8.25;5.55;;;;;;;;;;5002172;28;20189;-73
2023/07/26 08:49:59;;;;;;;9.98;5.28;;;;;;;;;;5013042;28;20244;-72
2023/07/26 08:52:25;;;;;;;5.22;4.38;;;;;;;;;;4984218;28;20223;-73
2023/07/26 08:54:52;;;;;;;7.00;3.88;;;;;;;;;;5006581;28;20381;-72
2023/07/26 08:57:18;;;;;;;5.50;4.10;;;;;;;;;;5004047;28;21017;-72
2023/07/26 08:59:43;;;;;;;6.90;4.10;;;;;;;;;;5013131;28;20191;-73
2023/07/26 09:02:13;;;;;;;5.70;3.42;;;;;;;;;;5000077;28;20230;-72
2023/07/26 09:04:39;;;;;;;7.75;4.30;;;;;;;;;;5010633;28;20190;-73
2023/07/26 09:07:05;;;;;;;3.70;3.20;;;;;;;;;;4994436;28;20190;-73
2023/07/26 09:09:32;;;;;;;4.22;2.83;;;;;;;;;;5010475;28;20666;-74
2023/07/26 09:11:58;;;;;;;4.03;3.03;;;;;;;;;;5013358;28;20281;-73
2023/07/26 09:14:28;;;;;;;5.50;3.53;;;;;;;;;;5006129;28;20678;-73
2023/07/26 09:16:56;;;;;;;5.15;2.83;;;;;;;;;;5012965;28;20218;-73
2023/07/26 09:19:28;;;;;;;3.72;3.10;;;;;;;;;;4999444;28;20350;-72
2023/07/26 09:21:59;;;;;;;4.50;3.00;;;;;;;;;;5009291;28;20194;-73
2023/07/26 09:24:35;;;;;;;5.97;3.45;;;;;;;;;;4999726;28;20195;-74
2023/07/26 09:27:06;;;;;;;5.95;3.83;;;;;;;;;;5011193;28;20229;-72
2023/07/26 09:29:33;;;;;;;4.68;3.55;;;;;;;;;;5008862;28;20187;-72
2023/07/26 09:31:59;;;;;;;7.55;3.70;;;;;;;;;;5012953;28;20244;-72
2023/07/26 09:34:25;;;;;;;7.22;4.40;;;;;;;;;;5007631;28;20200;-73
2023/07/26 09:36:51;;;;;;;7.25;5.15;;;;;;;;;;5003690;28;20630;-72
2023/07/26 09:39:18;;;;;;;6.45;4.82;;;;;;;;;;5016032;28;20250;-74
2023/07/26 09:41:47;;;;;;;5.97;5.15;;;;;;;;;;5000145;28;20246;-73
2023/07/26 09:44:17;;;;;;;9.73;5.70;;;;;;;;;;4996533;28;20258;-72
2023/07/26 09:46:55;;;;;;;7.18;4.90;;;;;;;;;;5005812;28;20199;-72
2023/07/26 09:49:22;;;;;;;6.15;5.15;;;;;;;;;;5003709;28;20191;-73
2023/07/26 09:51:48;;;;;;;8.68;4.13;;;;;;;;;;5001697;28;20567;-73
2023/07/26 09:54:14;;;;;;;5.38;4.22;;;;;;;;;;5014481;28;20190;-73
2023/07/26 09:56:41;;;;;;;6.57;4.10;;;;;;;;;;5002099;28;20238;-73
2023/07/26 09:59:11;;;;;;;5.38;3.40;;;;;;;;;;4996701;28;20198;-74
2023/07/26 10:01:43;;;;;;;3.58;2.90;;;;;;;;;;5008639;28;20189;-73
2023/07/26 10:04:30;;;;;;;3.97;3.00;;;;;;;;;;4998508;28;20187;-73
2023/07/26 10:06:58;;;;;;;3.13;2.28;;;;;;;;;;5014177;28;20737;-73
2023/07/26 10:09:27;;;;;;;3.90;2.83;;;;;;;;;;4995000;28;20660;-73
2023/07/26 10:11:54;;;;;;;3.63;2.05;;;;;;;;;;4998299;28;20206;-73
2023/07/26 10:14:20;;;;;;;3.13;2.40;;;;;;;;;;5001946;28;20238;-73
2023/07/26 10:16:49;;;;;;;3.08;2.25;;;;;;;;;;4991667;28;20215;-73
2023/07/26 10:19:15;;;;;;;2.17;1.92;;;;;;;;;;5003447;28;20193;-73
2023/07/26 10:21:42;;;;;;;4.25;2.08;;;;;;;;;;5008036;28;20219;-73
2023/07/26 10:24:11;;;;;;;3.00;2.22;;;;;;;;;;5002357;28;20613;-76
2023/07/26 10:26:37;;;;;;;3.78;2.40;;;;;;;;;;4993076;28;20215;-73
2023/07/26 10:29:03;;;;;;;3.42;2.45;;;;;;;;;;4976820;28;20235;-73
2023/07/26 10:31:29;;;;;;;2.83;2.47;;;;;;;;;;4988866;28;20508;-73
2023/07/26 10:33:56;;;;;;;3.00;2.40;;;;;;;;;;4985119;28;20222;-73
2023/07/26 10:36:30;;;;;;;3.50;2.30;;;;;;;;;;4978171;28;20695;-73
2023/07/26 10:38:56;;;;;;;3.97;2.10;;;;;;;;;;4977706;28;20280;-73
2023/07/26 10:41:27;;;;;;;2.97;2.53;;;;;;;;;;4985969;28;20219;-73
2023/07/26 10:44:02;;;;;;;3.45;2.10;;;;;;;;;;5000397;28;20192;-73
2023/07/26 10:46:28;;;;;;;3.92;2.35;;;;;;;;;;4985997;28;20562;-73
2023/07/26 10:48:54;;;;;;;3.10;2.72;;;;;;;;;;4988233;28;20187;-73
2023/07/26 10:51:33;;;;;;;3.30;2.83;;;;;;;;;;5007820;28;20241;-72
2023/07/26 10:54:00;;;;;;;3.95;2.67;;;;;;;;;;4992525;28;20238;-73
2023/07/26 10:56:33;;;;;;;3.55;2.70;;;;;;;;;;4977329;28;20273;-73
2023/07/26 10:59:04;;;;;;;3.85;2.30;;;;;;;;;;4982404;28;20667;-73
2023/07/26 11:01:37;;;;;;;2.78;2.15;;;;;;;;;;4988975;28;20198;-72
2023/07/26 11:04:10;;;;;;;3.55;2.47;;;;;;;;;;4972568;28;20187;-73
2023/07/26 11:06:49;;;;;;;2.97;2.38;;;;;;;;;;4988614;28;20191;-73
2023/07/26 11:09:26;;;;;;;4.38;2.85;;;;;;;;;;4976932;28;20211;-73
2023/07/26 11:11:59;;;;;;;4.20;2.80;;;;;;;;;;4987406;28;20663;-72
2023/07/26 11:14:26;;;;;;;6.88;2.50;;;;;;;;;;4985622;28;20686;-73
2023/07/26 11:16:53;;;;;;;2.53;2.15;;;;;;;;;;4984784;28;20258;-72
2023/07/26 11:19:18;;;;;;;4.70;2.67;;;;;;;;;;4980876;28;20200;-72
2023/07/26 11:21:44;;;;;;;4.13;2.17;;;;;;;;;;4996929;28;20194;-73
2023/07/26 11:24:09;;;;;;;5.93;2.17;;;;;;;;;;4985717;28;20191;-73
2023/07/26 11:26:45;;;;;;;4.35;2.28;;;;;;;;;;4986730;28;20199;-73
2023/07/26 11:29:11;;;;;;;2.60;2.10;;;;;;;;;;4970752;28;20234;-73
2023/07/26 11:31:37;;;;;;;4.88;2.25;;;;;;;;;;4967100;28;20640;-73
2023/07/26 11:34:17;;;;;;;3.88;2.42;;;;;;;;;;4959143;28;20546;-72
2023/07/26 11:36:43;;;;;;;3.28;2.10;;;;;;;;;;4969575;28;20645;-73
2023/07/26 11:39:22;;;;;;;2.90;2.03;;;;;;;;;;4969714;28;20192;-73
2023/07/26 11:41:48;;;;;;;2.88;2.10;;;;;;;;;;4957593;28;20232;-73
2023/07/26 11:44:14;;;;;;;3.40;2.13;;;;;;;;;;4960323;28;20199;-73
2023/07/26 11:46:43;;;;;;;2.75;1.77;;;;;;;;;;4963229;28;20192;-73
2023/07/26 11:49:20;;;;;;;2.40;2.00;;;;;;;;;;4969084;28;20232;-73
2023/07/26 11:51:46;;;;;;;3.17;1.55;;;;;;;;;;4960266;28;20605;-73
2023/07/26 11:54:12;;;;;;;3.53;1.90;;;;;;;;;;4967598;28;20211;-72
2023/07/26 11:56:37;;;;;;;5.65;2.00;;;;;;;;;;4971160;28;20676;-73
2023/07/26 11:59:03;;;;;;;3.80;2.10;;;;;;;;;;4968175;28;20720;-73
2023/07/26 12:01:30;;;;;;;2.65;1.85;;;;;;;;;;4969942;28;20217;-72
2023/07/26 12:03:56;;;;;;;4.60;2.53;;;;;;;;;;4967236;28;20192;-72
2023/07/26 12:06:28;;;;;;;4.40;2.35;;;;;;;;;;4966043;28;20262;-73
2023/07/26 12:09:01;;;;;;;4.45;2.35;;;;;;;;;;4960508;28;20185;-72
2023/07/26 12:11:27;;;;;;;3.15;2.22;;;;;;;;;;4963060;28;20222;-73
2023/07/26 12:13:56;;;;;;;2.67;1.35;;;;;;;;;;4961991;28;20223;-73
2023/07/26 12:16:27;;;;;;;2.53;1.67;;;;;;;;;;4964625;28;20564;-73
2023/07/26 12:18:56;;;;;;;2.70;1.50;;;;;;;;;;4960810;28;20617;-73
2023/07/26 12:21:24;;;;;;;5.30;1.27;;;;;;;;;;4960761;28;20192;-73
2023/07/26 12:23:52;;;;;;;2.65;1.50;;;;;;;;;;4963887;28;20224;-73
2023/07/26 12:26:22;;;;;;;4.68;2.15;;;;;;;;;;4961165;28;20200;-73
2023/07/26 12:28:49;;;;;;;4.65;2.00;;;;;;;;;;4991143;28;20227;-73
2023/07/26 12:31:23;;;;;;;4.32;2.13;;;;;;;;;;4999537;28;20187;-72
2023/07/26 12:34:02;;;;;;;3.38;2.35;;;;;;;;;;4994081;28;20195;-73
2023/07/26 12:36:47;;;;;;;4.22;2.40;;;;;;;;;;4994712;28;20212;-72
2023/07/26 12:39:20;;;;;;;4.13;2.40;;;;;;;;;;4987823;28;20196;-73
2023/07/26 12:41:45;;;;;;;2.70;2.00;;;;;;;;;;4978391;28;20253;-72
2023/07/26 12:44:12;;;;;;;4.07;1.95;;;;;;;;;;4996048;28;20195;-72
2023/07/26 12:46:38;;;;;;;4.57;2.08;;;;;;;;;;4987860;28;20191;-73
2023/07/26 12:49:06;;;;;;;2.13;1.73;;;;;;;;;;4990844;28;20222;-73
2023/07/26 12:51:31;;;;;;;3.13;1.67;;;;;;;;;;4986066;28;20226;-72
2023/07/26 12:53:57;;;;;;;4.15;1.70;;;;;;;;;;4993270;28;20253;-73
2023/07/26 12:56:24;;;;;;;4.13;1.90;;;;;;;;;;4991196;28;20227;-71
2023/07/26 12:58:49;;;;;;;3.55;1.90;;;;;;;;;;4991762;28;20215;-72
2023/07/26 13:01:16;;;;;;;3.15;1.92;;;;;;;;;;5006543;28;20196;-71
2023/07/26 13:03:42;;;;;;;5.32;2.50;;;;;;;;;;4981957;28;20200;-72
2023/07/26 13:06:08;;;;;;;3.38;2.30;;;;;;;;;;4986051;28;20545;-72
2023/07/26 13:08:33;;;;;;;2.80;2.00;;;;;;;;;;4991161;28;20199;-72
2023/07/26 13:10:59;;;;;;;3.85;2.10;;;;;;;;;;5002653;28;20576;-72
2023/07/26 13:13:25;;;;;;;4.65;1.98;;;;;;;;;;4991780;28;20667;-72
2023/07/26 13:15:51;;;;;;;3.15;1.50;;;;;;;;;;4984129;28;20539;-72
2023/07/26 13:18:16;;;;;;;2.75;1.58;;;;;;;;;;5000816;28;20334;-72
2023/07/26 13:20:42;;;;;;;2.30;1.80;;;;;;;;;;4989922;28;20183;-72
2023/07/26 13:23:08;;;;;;;3.90;1.73;;;;;;;;;;4989534;28;20606;-72
2023/07/26 13:25:33;;;;;;;2.08;1.65;;;;;;;;;;4981850;28;20227;-72
2023/07/26 13:27:59;;;;;;;3.15;1.90;;;;;;;;;;4995236;28;20233;-72
2023/07/26 13:30:24;;;;;;;2.92;1.80;;;;;;;;;;5012077;28;20603;-72
2023/07/26 13:32:49;;;;;;;7.85;2.30;;;;;;;;;;5008275;28;20194;-71
2023/07/26 13:35:15;;;;;;;5.82;2.20;;;;;;;;;;4977816;28;20187;-71
2023/07/26 13:37:41;;;;;;;3.70;2.05;;;;;;;;;;5011977;28;20280;-74
2023/07/26 13:40:07;;;;;;;4.13;2.40;;;;;;;;;;5007029;28;20241;-72
2023/07/26 13:42:32;;;;;;;3.72;2.13;;;;;;;;;;5009654;28;20627;-72
2023/07/26 13:44:59;;;;;;;4.97;2.10;;;;;;;;;;5004971;28;20670;-72
2023/07/26 13:47:24;;;;;;;5.60;2.47;;;;;;;;;;5007475;28;20194;-72
2023/07/26 13:49:50;;;;;;;5.20;2.70;;;;;;;;;;4310679;28;10021531;-71
2023/07/26 13:52:15;;;;;;;4.30;2.65;;;;;;;;;;5012073;28;20646;-72
2023/07/26 13:54:41;;;;;;;3.78;2.20;;;;;;;;;;4991604;28;20571;-72
2023/07/26 13:57:08;;;;;;;5.30;2.55;;;;;;;;;;5002804;28;20695;-72
2023/07/26 13:59:35;;;;;;;3.67;2.47;;;;;;;;;;5001998;28;20187;-72
2023/07/26 14:02:01;;;;;;;5.38;2.83;;;;;;;;;;4990119;28;20186;-71
2023/07/26 14:04:26;;;;;;;4.88;2.67;;;;;;;;;;4991172;28;20195;-71
2023/07/26 14:06:52;;;;;;;4.00;2.53;;;;;;;;;;5002827;28;20617;-71
2023/07/26 14:09:17;;;;;;;4.50;2.70;;;;;;;;;;5008224;28;20196;-72
2023/07/26 14:11:43;;;;;;;4.70;2.90;;;;;;;;;;5007818;28;20701;-72
2023/07/26 14:14:08;;;;;;;4.72;2.97;;;;;;;;;;5009110;28;20202;-72
2023/07/26 14:16:34;;;;;;;3.25;2.50;;;;;;;;;;5007486;28;20257;-72
2023/07/26 14:18:59;;;;;;;4.70;2.70;;;;;;;;;;5006746;28;20195;-72
2023/07/26 14:21:25;;;;;;;4.13;2.80;;;;;;;;;;5010816;28;20602;-72
2023/07/26 14:23:50;;;;;;;4.38;2.88;;;;;;;;;;5010119;28;20722;-72
2023/07/26 14:26:15;;;;;;;5.75;3.10;;;;;;;;;;5007630;28;20195;-72
2023/07/26 14:28:41;;;;;;;6.22;3.00;;;;;;;;;;5003378;28;20227;-72
2023/07/26 14:31:06;;;;;;;6.55;3.13;;;;;;;;;;5000401;28;20184;-72
2023/07/26 14:33:32;;;;;;;5.50;2.65;;;;;;;;;;4984711;28;20206;-72
2023/07/26 14:35:57;;;;;;;3.83;2.47;;;;;;;;;;5003320;28;20183;-72
2023/07/26 14:38:23;;;;;;;4.63;3.28;;;;;;;;;;5003612;28;20318;-72
2023/07/26 14:40:48;;;;;;;4.88;2.78;;;;;;;;;;4990823;28;20183;-71